San Francisco, CA (94101)

10:22 AM PST on February 10, 2016 (GMT -0800)
SOMA - Near Van Ness | | Change Station
CLOSE
Current Station
Personal Weather Station
Location: San Francisco, CA
Elevation: 49 ft
Nearby Weather Stations

Elev 49 ft 37.77 °N, 122.42 °W | Updated 6 seconds ago

Partly Cloudy
Partly Cloudy
62.6 °F
Feels Like 62.6 °F
N
0.0
Wind Variable Wind from SW
Gusts 4.0 mph

Today
High -- | Low -- °F
--% Chance of Precip.
Yesterday
High -- | Low -- °F
Precip. -- in
Pressure 30.27 in
Visibility 9.0 miles
Clouds Few 2000 ft
Scattered Clouds 16000 ft
Mostly Cloudy 20000 ft
Dew Point 53 °F
Humidity 70%
Rainfall 0.00 in
Snow Depth Not available.
7:05 AM 5:42 PM
Waxing Crescent, 6% visible
METAR KSFO 101756Z 00000KT 9SM FEW020 SCT160 BKN200 14/10 A3027 RMK AO2 SLP251 T01440100 10150 20100 51009 $
Pressure 30.27 in
Visibility 9.0 miles
Clouds Few 2000 ft
Scattered Clouds 16000 ft
Mostly Cloudy 20000 ft
Dew Point 53 °F
Humidity 70%
Rainfall 0.00 in
Snow Depth Not available.
7:05 AM 5:42 PM
Waxing Crescent, 6% visible
METAR KSFO 101756Z 00000KT 9SM FEW020 SCT160 BKN200 14/10 A3027 RMK AO2 SLP251 T01440100 10150 20100 51009 $

10-Day Weather Forecast

Almanac

Astronomy

Feb. 10, 2016 Rise Set
Actual Time
Civil Twilight
Nautical Twilight
Astronomical Twilight
Moon
Length of Visible Light
Length of Day
Tomorrow will be .
, % of the Moon is Illuminated

Today's Extremes

State Highs State Lows

Community

WunderPhotos

Upload Photos

1,891,907 photos uploaded!

WunderBlog® & News

Nearby

Air Quality

  Air Quality AQ Index Pollutant
Not available.

Snow Depth

Station Depth Elevation

Earthquake Activity

City Distance Mag. Time & Date
Minimum magnitude displayed is 2.5.

Coastal Water Temperatures

Place Temperature

Stations

Nearby Weather Stations

Station Location Temp. Windchill Dew Point Humidity Wind Precip. Elev Updated Type
                   

Watches & Warnings

There are currently no watches in effect.